Nearby METAR Reports

 

KHIF - Hill Afb/Ogden, Utah, USA
Distance from station: ENE 6mi, 9km
Updated: Tue, 30-Nov-2021 9:58am MST
Clear
Clear
 Wind from E
Wind: E 7 mph , 11 km/h
Temperature: 39°F , 4°C
Wind Chill: 34°F , 1°C
Dew Point: 27°F , -3°C
Humidity: 61%
Barometer: 30.40 inHg , 1029.5 hPa
Clouds: Clear
Visibility: 10 miles , 16 km
2021/11/30 16:58 KHIF 301658Z AUTO 10006KT 10SM CLR 04/M03 A3040 RMK AO2 SLP295 T00371027
KOGD - Ogden, Utah, USA
Distance from station: NNE 9mi, 14km
Updated: Tue, 30-Nov-2021 9:53am MST
Clear
Clear
 Wind from SSE
Wind: SSE 3 mph , 6 km/h
Temperature: 41°F , 5°C
Dew Point: 30°F , -1°C
Humidity: 66%
Barometer: 30.41 inHg , 1029.8 hPa
Clouds: Clear
Visibility: 10 miles , 16 km
2021/11/30 16:53 KOGD 301653Z 16003KT 10SM CLR 05/M01 A3041 RMK AO2 SLP298 T00501011
 
KSLC - Salt Lake City, Utah, USA
Distance from station: SSE 21mi, 34km
Updated: Tue, 30-Nov-2021 9:54am MST
Mostly cloudy
Mostly cloudy
 Wind from calm
Wind: Calm
Temperature: 45°F , 7°C
Dew Point: 30°F , -1°C
Humidity: 57%
Barometer: 30.41 inHg , 1029.8 hPa
Clouds: Mostly cloudy
Visibility: 10 miles , 16 km
Cloud details: Mostly cloudy 20000 ft
2021/11/30 16:54 KSLC 301654Z 00000KT 10SM BKN200 07/M01 A3041 RMK AO2 SLP297 T00721006
KLGU - Logan, Utah, USA
Distance from station: NNE 50mi, 80km
Updated: Tue, 30-Nov-2021 9:51am MST
Clear
Clear
 Wind from S
Wind: S 5 mph , 7 km/h
Temperature: 34°F , 1°C
Wind Chill: 29°F , -2°C
Dew Point: 28°F , -2°C
Humidity: 81%
Barometer: 30.40 inHg , 1029.5 hPa
Clouds: Clear
Visibility: 7 miles , 11 km
2021/11/30 16:51 KLGU 301651Z AUTO 19004KT 7SM CLR 01/M02 A3040 RMK AO2 SLP308 T00061017
 
K36U - Heber/Russ Mcdon, Utah, USA
Distance from station: SE 53mi, 85km
Updated: Wed, 11-Oct-2017 6:50pm MDT
NOT Current
Clear
Clear
 Wind from SSW
Wind: SSW 10 mph , 17 km/h, Gust: 18 mph , 30 km/h
Temperature: 63°F , 17°C
Dew Point: 16°F , -9°C
Humidity: 16%
Barometer: 29.87 inHg , 1011.5 hPa
Clouds: Clear
Visibility: 10 miles , 16 km
2017/10/12 00:50 K36U 120050Z AUTO 21009G16KT 10SM CLR 17/M09 A2987 RMK AO2
KEVW - Evanston, Wyoming, USA
Distance from station: ENE 55mi, 89km
Updated: Tue, 30-Nov-2021 9:53am MST
Clear
Clear
 Wind from SW
Wind: SW 13 mph , 20 km/h
Temperature: 36°F , 2°C
Wind Chill: 27°F , -3°C
Dew Point: 25°F , -4°C
Humidity: 65%
Barometer: 30.39 inHg , 1029.1 hPa
Clouds: Clear
Visibility: 10 miles , 16 km
2021/11/30 16:53 KEVW 301653Z AUTO 23011KT 10SM CLR 02/M04 A3039 RMK AO2 SLP288 T00221044
 
KPVU - Provo Muni, Utah, USA
Distance from station: SSE 62mi, 100km
Updated: Tue, 30-Nov-2021 9:56am MST
Clear
Clear
 Wind from calm
Wind: Calm
Temperature: 39°F , 4°C
Dew Point: 34°F , 1°C
Humidity: 81%
Barometer: 30.43 inHg , 1030.5 hPa
Clouds: Clear
Visibility: 10 miles , 16 km
2021/11/30 16:56 KPVU 301656Z 00000KT 10SM CLR 04/01 A3043 RMK AO2 SLP315 T00390011
KDPG - Dugway Prvg Grou, Utah, USA
Distance from station: SW 75mi, 121km
Updated: Tue, 30-Nov-2021 9:55am MST
Partly cloudy
Partly cloudy
 Wind from calm
Wind: Calm
Temperature: 37°F , 3°C
Dew Point: 25°F , -4°C
Humidity: 60%
Barometer: 30.40 inHg , 1029.5 hPa
Clouds: Partly cloudy
Visibility: 30 miles , 48 km
Cloud details: Partly cloudy 20000 ft
2021/11/30 16:55 KDPG 301655Z 00000KT 30SM SCT200 03/M04 A3040 RMK SLP303 T00251037
 
KENV - Wendover (aut), Utah, USA
Distance from station: WSW 105mi, 169km
Updated: Tue, 30-Nov-2021 9:56am MST
Clear
Clear
 Wind from NE
Wind: NE 8 mph , 13 km/h
Temperature: 37°F , 3°C
Wind Chill: 31°F , -1°C
Dew Point: 25°F , -4°C
Humidity: 60%
Barometer: 30.42 inHg , 1030.1 hPa
Clouds: Clear
Visibility: 10 miles , 16 km
2021/11/30 16:56 KENV 301656Z AUTO 05007KT 10SM CLR 03/M04 A3042 RMK AO2 SLP324 T00331039
KPUC - Price, Utah, USA
Distance from station: SE 123mi, 197km
Updated: Tue, 30-Nov-2021 9:53am MST
Clear
Clear
 Wind from calm
Wind: Calm
Temperature: 43°F , 6°C
Dew Point: 19°F , -7°C
Humidity: 39%
Barometer: 30.35 inHg , 1027.8 hPa
Clouds: Clear
Visibility: 10 miles , 16 km
2021/11/30 16:53 KPUC 301653Z AUTO 00000KT 10SM CLR 06/M07 A3035 RMK AO2 SLP293 T00611067
 
KPIH - Pocatello, Idaho, USA
Distance from station: NNW 130mi, 208km
Updated: Tue, 30-Nov-2021 9:53am MST
Clear
Clear
 Wind from calm
Wind: Calm
Temperature: 30°F , -1°C
Dew Point: 27°F , -3°C
Humidity: 86%
Barometer: 30.40 inHg , 1029.5 hPa
Clouds: Clear
Visibility: 10 miles , 16 km
2021/11/30 16:53 KPIH 301653Z 00000KT 10SM CLR M01/M03 A3040 RMK AO2 SLP313 T10111028
KBYI - Burley, Idaho, USA
Distance from station: NW 134mi, 216km
Updated: Tue, 30-Nov-2021 9:53am MST
Clear
Clear
 Wind from calm
Wind: Calm
Temperature: 30°F , -1°C
Dew Point: 27°F , -3°C
Humidity: 86%
Barometer: 30.40 inHg , 1029.5 hPa
Clouds: Clear
Visibility: 10 miles , 16 km
2021/11/30 16:53 KBYI 301653Z AUTO 00000KT 10SM CLR M01/M03 A3040 RMK AO2 SLP305 T10061033
 
KVEL - Vernal, Utah, USA
Distance from station: ESE 140mi, 226km
Updated: Tue, 30-Nov-2021 9:53am MST
Clear
Clear
 Wind from calm
Wind: Calm
Temperature: 39°F , 4°C
Dew Point: 23°F , -5°C
Humidity: 52%
Barometer: 30.39 inHg , 1029.1 hPa
Clouds: Clear
Visibility: 10 miles , 16 km
2021/11/30 16:53 KVEL 301653Z AUTO 00000KT 10SM CLR 04/M05 A3039 RMK AO2 SLP306 T00441050
KBPI - Big Piney, Wyoming, USA
Distance from station: NE 145mi, 234km
Updated: Tue, 30-Nov-2021 9:53am MST
Clear
Clear
 Wind from E
Wind: E 3 mph , 6 km/h
Temperature: 25°F , -4°C
Dew Point: 21°F , -6°C
Humidity: 86%
Barometer: 30.33 inHg , 1027.1 hPa
Clouds: Clear
Visibility: 10 miles , 16 km
2021/11/30 16:53 KBPI 301653Z AUTO 09003KT 10SM CLR M04/M06 A3033 RMK AO2 SLP272 T10391061